Terminal Aerodrome Forecast
Issued by NWS

Home | Current Version | Previous Version | Text Only | Print | Product List | Glossary On
Versions: 1 2 3 4 5 6 7 8 9 10 11 12 13 14 15 16
000
FTAK31 PAJN 280200 AAA
TAFASI
TAF AMD
PASI 280229Z 2802/2824 29007KT P6SM VCSH SCT025 BKN030 OVC060
     FM280600 31010KT P6SM SCT015 OVC025
     FM281200 32007KT P6SM BKN012 OVC020
     FM282000 29011KT P6SM SCT015 SCT100=

USA.gov is the U.S. government's official web portal to all federal, state and local government web resources and services.